createdAt,value
2023-02-06T00:00:03.083Z,14.77
2023-02-06T00:02:32.189Z,13.15
2023-02-06T00:04:59.422Z,13.30
2023-02-06T00:07:26.578Z,13.27
2023-02-06T00:09:53.796Z,9.45
2023-02-06T00:12:20.936Z,13.20
2023-02-06T00:14:47.977Z,10.52
2023-02-06T00:17:15.028Z,12.90
2023-02-06T00:19:43.134Z,14.63
2023-02-06T00:22:10.571Z,13.07
2023-02-06T00:24:37.670Z,15.75
2023-02-06T00:27:04.787Z,13.68
2023-02-06T00:29:31.813Z,14.80
2023-02-06T00:31:58.845Z,13.88
2023-02-06T00:34:26.216Z,14.05
2023-02-06T00:36:53.354Z,11.60
2023-02-06T00:39:20.624Z,9.88
2023-02-06T00:41:47.852Z,11.75
2023-02-06T00:44:14.966Z,12.50
2023-02-06T00:46:42.392Z,8.70
2023-02-06T00:49:09.682Z,10.48
2023-02-06T00:51:38.980Z,8.82
2023-02-06T00:54:07.759Z,13.98
2023-02-06T00:56:35.674Z,13.77
2023-02-06T00:59:02.837Z,12.88
2023-02-06T01:01:30.049Z,12.52
2023-02-06T01:03:57.182Z,13.07
2023-02-06T01:06:24.575Z,15.05
2023-02-06T01:08:51.589Z,11.90
2023-02-06T01:11:21.577Z,8.88
2023-02-06T01:13:49.181Z,11.48
2023-02-06T01:16:20.767Z,13.52
2023-02-06T01:18:48.691Z,11.02
2023-02-06T01:21:20.590Z,9.93
2023-02-06T01:23:49.546Z,14.27
2023-02-06T01:26:20.911Z,13.73
2023-02-06T01:28:49.325Z,11.07
2023-02-06T01:31:22.915Z,9.32
2023-02-06T01:33:51.382Z,12.82
2023-02-06T01:36:20.529Z,11.93
2023-02-06T01:38:48.721Z,9.88
2023-02-06T01:41:17.729Z,12.65
2023-02-06T01:43:48.069Z,13.27
2023-02-06T01:46:15.200Z,11.80
2023-02-06T01:48:49.423Z,12.35
2023-02-06T01:51:23.864Z,10.45
2023-02-06T01:53:54.373Z,13.52
2023-02-06T01:56:22.529Z,14.55
2023-02-06T01:58:54.403Z,8.50
2023-02-06T02:01:21.797Z,11.15
2023-02-06T02:03:52.915Z,12.40
2023-02-06T02:06:25.186Z,9.15
2023-02-06T02:08:58.198Z,10.88
2023-02-06T02:11:32.693Z,14.25
2023-02-06T02:14:02.176Z,14.18
2023-02-06T02:16:52.529Z,9.40
2023-02-06T02:19:52.528Z,14.35
2023-02-06T02:22:30.816Z,12.88
2023-02-06T02:25:25.733Z,11.95
2023-02-06T02:27:52.801Z,12.18
2023-02-06T02:30:41.998Z,11.52
2023-02-06T02:33:48.073Z,13.90
2023-02-06T02:36:20.967Z,16.23
2023-02-06T02:39:09.637Z,10.30
2023-02-06T02:41:50.880Z,13.02
2023-02-06T02:44:38.776Z,11.65
2023-02-06T02:47:12.434Z,11.27
2023-02-06T02:49:41.860Z,11.57
2023-02-06T02:52:11.186Z,11.35
2023-02-06T02:54:38.278Z,14.00
2023-02-06T02:57:17.553Z,11.88
2023-02-06T02:59:47.198Z,12.55
2023-02-06T03:02:37.060Z,10.15
2023-02-06T03:05:08.175Z,14.00
2023-02-06T03:07:56.914Z,14.15
2023-02-06T03:10:39.080Z,11.18
2023-02-06T03:13:27.380Z,14.38
2023-02-06T03:15:54.478Z,9.95
2023-02-06T03:18:31.188Z,10.02
2023-02-06T03:21:00.122Z,11.00
2023-02-06T03:23:33.726Z,15.02
2023-02-06T03:26:05.938Z,13.90
2023-02-06T03:28:36.267Z,11.40
2023-02-06T03:31:07.898Z,8.43
2023-02-06T03:33:45.607Z,11.77
2023-02-06T03:36:18.495Z,11.75
2023-02-06T03:38:48.317Z,9.93
2023-02-06T03:41:18.451Z,11.02
2023-02-06T03:43:48.760Z,10.68
2023-02-06T03:46:18.493Z,10.07
2023-02-06T03:48:52.284Z,12.30
2023-02-06T03:51:29.153Z,11.05
2023-02-06T03:54:00.054Z,9.38
2023-02-06T03:56:55.002Z,10.40
2023-02-06T03:59:22.868Z,11.25
2023-02-06T04:01:56.718Z,10.63
2023-02-06T04:04:29.378Z,10.85
2023-02-06T04:07:03.734Z,11.88
2023-02-06T04:09:30.866Z,6.53
2023-02-06T04:11:57.986Z,11.10
2023-02-06T04:14:25.038Z,8.85
2023-02-06T04:16:52.372Z,10.27
2023-02-06T04:19:19.604Z,9.35
2023-02-06T04:21:46.700Z,12.43
2023-02-06T04:24:13.804Z,9.05
2023-02-06T04:26:43.512Z,11.00
2023-02-06T04:29:12.962Z,8.02
2023-02-06T04:31:41.191Z,7.38
2023-02-06T04:34:08.571Z,9.82
2023-02-06T04:36:36.011Z,10.45
2023-02-06T04:39:06.939Z,11.57
2023-02-06T04:41:34.287Z,10.32
2023-02-06T04:44:01.374Z,14.15
2023-02-06T04:46:28.585Z,10.80
2023-02-06T04:48:55.623Z,9.80
2023-02-06T04:51:22.826Z,10.60
2023-02-06T04:53:49.937Z,10.77
2023-02-06T04:56:16.964Z,9.90
2023-02-06T04:58:44.040Z,14.13
2023-02-06T05:01:11.215Z,10.43
2023-02-06T05:03:38.406Z,10.48
2023-02-06T05:06:05.776Z,8.00
2023-02-06T05:08:32.986Z,8.27
2023-02-06T05:11:00.074Z,11.73
2023-02-06T05:13:27.156Z,9.52
2023-02-06T05:15:54.314Z,12.02
2023-02-06T05:18:21.534Z,9.43
2023-02-06T05:20:48.750Z,10.38
2023-02-06T05:23:15.840Z,9.35
2023-02-06T05:25:42.943Z,11.73
2023-02-06T05:28:10.184Z,12.45
2023-02-06T05:30:37.581Z,9.32
2023-02-06T05:33:04.694Z,11.90
2023-02-06T05:35:31.922Z,11.00
2023-02-06T05:37:59.023Z,12.07
2023-02-06T05:40:26.380Z,9.32
2023-02-06T05:42:53.591Z,11.40
2023-02-06T05:45:20.781Z,9.45
2023-02-06T05:47:47.912Z,12.45
2023-02-06T05:50:15.412Z,10.10
2023-02-06T05:52:42.585Z,11.63
2023-02-06T05:55:10.227Z,9.70
2023-02-06T05:57:37.300Z,9.10
2023-02-06T06:00:06.190Z,8.80
2023-02-06T06:02:39.982Z,9.88
2023-02-06T06:05:07.450Z,10.10
2023-02-06T06:07:34.653Z,10.13
2023-02-06T06:10:01.838Z,9.93
2023-02-06T06:12:30.631Z,14.50
2023-02-06T06:14:57.773Z,10.52
2023-02-06T06:17:24.928Z,12.98
2023-02-06T06:19:52.016Z,10.05
2023-02-06T06:22:19.110Z,9.13
2023-02-06T06:24:46.181Z,9.18
2023-02-06T06:27:13.301Z,10.10
2023-02-06T06:29:40.435Z,9.57
2023-02-06T06:32:07.565Z,8.80
2023-02-06T06:34:34.770Z,9.85
2023-02-06T06:37:01.947Z,9.70
2023-02-06T06:39:28.989Z,10.23
2023-02-06T06:41:56.168Z,12.02
2023-02-06T06:44:23.384Z,9.02
2023-02-06T06:46:50.541Z,7.57
2023-02-06T06:49:17.728Z,9.15
2023-02-06T06:51:44.781Z,12.63
2023-02-06T06:54:11.828Z,13.48
2023-02-06T06:56:39.203Z,12.23
2023-02-06T06:59:06.363Z,11.65
2023-02-06T07:01:33.890Z,9.43
2023-02-06T07:04:01.295Z,11.18
2023-02-06T07:06:28.628Z,13.32
2023-02-06T07:08:55.710Z,10.68
2023-02-06T07:11:24.452Z,11.90
2023-02-06T07:13:51.759Z,12.65
2023-02-06T07:16:19.400Z,9.60
2023-02-06T07:18:46.650Z,10.98
2023-02-06T07:21:16.480Z,10.52
2023-02-06T07:23:47.277Z,12.38
2023-02-06T07:26:14.614Z,12.40
2023-02-06T07:28:42.365Z,15.18
2023-02-06T07:31:10.148Z,12.30
2023-02-06T07:33:46.620Z,12.80
2023-02-06T07:36:15.517Z,12.23
2023-02-06T07:38:42.661Z,13.60
2023-02-06T07:41:12.814Z,12.40
2023-02-06T07:43:40.149Z,11.57
2023-02-06T07:46:07.365Z,12.00
2023-02-06T07:48:34.406Z,11.77
2023-02-06T07:51:07.042Z,14.27
2023-02-06T07:53:35.043Z,13.55
2023-02-06T07:56:02.349Z,14.20
2023-02-06T07:58:29.440Z,13.80
2023-02-06T08:00:56.593Z,14.43
2023-02-06T08:03:23.669Z,13.50
2023-02-06T08:05:50.782Z,11.50
2023-02-06T08:08:20.529Z,11.80
2023-02-06T08:10:48.237Z,11.60
2023-02-06T08:13:15.760Z,12.48
2023-02-06T08:15:42.796Z,16.85
2023-02-06T08:18:09.899Z,12.82
2023-02-06T08:20:37.056Z,11.65
2023-02-06T08:23:04.336Z,14.43
2023-02-06T08:25:31.445Z,16.58
2023-02-06T08:27:58.849Z,19.33
2023-02-06T08:30:26.085Z,15.88
2023-02-06T08:32:53.367Z,15.98
2023-02-06T08:35:20.526Z,11.73
2023-02-06T08:37:47.630Z,15.88
2023-02-06T08:40:17.931Z,15.65
2023-02-06T08:42:50.369Z,15.27
2023-02-06T08:45:21.990Z,14.18
2023-02-06T08:47:52.390Z,12.48
2023-02-06T08:50:28.525Z,12.98
2023-02-06T08:52:55.891Z,12.35
2023-02-06T08:55:25.197Z,13.57
2023-02-06T08:57:52.457Z,15.52
2023-02-06T09:00:21.004Z,13.23
2023-02-06T09:02:48.206Z,12.15
2023-02-06T09:05:15.707Z,14.50
2023-02-06T09:07:43.475Z,12.27
2023-02-06T09:10:22.166Z,15.23
2023-02-06T09:15:22.358Z,8.82
2023-02-06T09:17:49.439Z,11.38
2023-02-06T09:20:16.805Z,11.77
2023-02-06T09:22:44.752Z,13.77
2023-02-06T09:25:12.316Z,13.82
2023-02-06T09:27:39.661Z,11.32
2023-02-06T09:30:07.572Z,12.32
2023-02-06T09:32:38.128Z,11.18
2023-02-06T09:35:06.043Z,11.75
2023-02-06T09:37:33.644Z,12.40
2023-02-06T09:40:00.743Z,14.80
2023-02-06T09:42:36.002Z,11.48
2023-02-06T09:45:15.566Z,12.50
2023-02-06T09:48:06.031Z,14.57
2023-02-06T09:50:41.473Z,12.82
2023-02-06T09:53:22.507Z,11.90
2023-02-06T09:56:09.995Z,14.93
2023-02-06T09:58:53.950Z,12.88
2023-02-06T10:01:33.739Z,13.65
2023-02-06T10:04:40.372Z,12.73
2023-02-06T10:07:19.866Z,10.23
2023-02-06T10:09:54.334Z,15.07
2023-02-06T10:12:31.352Z,14.90
2023-02-06T10:15:15.492Z,16.15
2023-02-06T10:18:09.604Z,16.75
2023-02-06T10:20:43.567Z,18.55
2023-02-06T10:23:15.254Z,15.25
2023-02-06T10:25:53.837Z,16.38
2023-02-06T10:28:25.563Z,15.02
2023-02-06T10:31:21.282Z,17.00
2023-02-06T10:34:16.543Z,20.48
2023-02-06T10:37:20.322Z,15.15
2023-02-06T10:39:50.301Z,16.95
2023-02-06T10:42:54.484Z,17.40
2023-02-06T10:46:03.116Z,16.83
2023-02-06T10:48:41.990Z,16.65
2023-02-06T10:51:32.478Z,15.40
2023-02-06T10:54:06.146Z,13.98
2023-02-06T10:56:41.355Z,17.52
2023-02-06T10:59:29.485Z,12.75
2023-02-06T11:02:23.057Z,12.10
2023-02-06T11:05:00.760Z,19.10
2023-02-06T11:07:37.513Z,15.07
2023-02-06T11:10:07.166Z,15.40
2023-02-06T11:13:01.961Z,12.00
2023-02-06T11:15:40.793Z,15.00
2023-02-06T11:18:15.029Z,13.30
2023-02-06T11:20:46.520Z,11.63
2023-02-06T11:23:23.361Z,12.25
2023-02-06T11:26:17.070Z,12.60
2023-02-06T11:28:56.757Z,12.27
2023-02-06T11:31:46.250Z,13.93
2023-02-06T11:34:52.945Z,12.23
2023-02-06T11:37:35.938Z,13.38
2023-02-06T11:40:36.018Z,14.75
2023-02-06T11:43:24.488Z,9.98
2023-02-06T11:46:06.983Z,11.65
2023-02-06T11:48:38.762Z,11.20
2023-02-06T11:51:07.951Z,13.48
2023-02-06T11:53:36.433Z,15.63
2023-02-06T11:56:22.348Z,13.75
2023-02-06T11:59:24.406Z,14.07
2023-02-06T12:01:51.673Z,12.07
2023-02-06T12:04:40.030Z,12.20
2023-02-06T12:07:16.559Z,14.05
2023-02-06T12:09:45.690Z,13.18
2023-02-06T12:12:19.118Z,13.52
2023-02-06T12:15:23.690Z,12.48
2023-02-06T12:17:57.007Z,14.15
2023-02-06T12:20:33.812Z,12.48
2023-02-06T12:23:18.530Z,12.23
2023-02-06T12:25:49.837Z,10.63
2023-02-06T12:28:38.426Z,16.20
2023-02-06T12:31:21.403Z,13.93
2023-02-06T12:33:55.072Z,13.25
2023-02-06T12:36:35.506Z,11.57
2023-02-06T12:39:06.297Z,11.80
2023-02-06T12:41:58.447Z,11.23
2023-02-06T12:44:47.339Z,13.68
2023-02-06T12:47:17.417Z,11.65
2023-02-06T12:50:01.138Z,13.80
2023-02-06T12:52:51.890Z,11.30
2023-02-06T12:55:37.627Z,14.55
2023-02-06T12:58:20.836Z,11.57
2023-02-06T13:01:14.790Z,14.77
2023-02-06T13:03:56.110Z,13.35
2023-02-06T13:06:30.336Z,13.57
2023-02-06T13:08:57.576Z,12.68
2023-02-06T13:11:29.023Z,14.05
2023-02-06T13:14:06.056Z,10.43
2023-02-06T13:16:49.865Z,12.43
2023-02-06T13:19:21.313Z,14.23
2023-02-06T13:22:17.518Z,15.50
2023-02-06T13:24:49.989Z,15.25
2023-02-06T13:27:39.641Z,15.32
2023-02-06T13:30:30.310Z,11.05
2023-02-06T13:32:59.644Z,13.65
2023-02-06T13:35:29.405Z,14.55
2023-02-06T13:38:34.947Z,16.30
2023-02-06T13:41:14.382Z,10.75
2023-02-06T13:43:44.785Z,17.10
2023-02-06T13:46:22.039Z,18.27
2023-02-06T13:48:55.342Z,15.48
2023-02-06T13:54:10.758Z,13.52
2023-02-06T13:57:11.869Z,16.13
2023-02-06T13:59:53.471Z,13.82
2023-02-06T14:02:37.625Z,16.77
2023-02-06T14:05:20.358Z,12.73
2023-02-06T14:08:05.880Z,16.40
2023-02-06T14:10:57.843Z,17.08
2023-02-06T14:14:03.972Z,13.27
2023-02-06T14:16:51.115Z,15.07
2023-02-06T14:19:37.100Z,20.15
2023-02-06T14:22:30.113Z,13.52
2023-02-06T14:25:34.085Z,12.68
2023-02-06T14:28:18.954Z,17.27
2023-02-06T14:31:16.592Z,14.73
2023-02-06T14:34:02.773Z,16.27
2023-02-06T14:36:48.307Z,14.90
2023-02-06T14:40:04.319Z,15.48
2023-02-06T14:42:40.121Z,15.60
2023-02-06T14:45:36.137Z,14.70
2023-02-06T14:48:31.428Z,14.55
2023-02-06T14:50:59.675Z,12.50
2023-02-06T14:53:57.218Z,16.02
2023-02-06T14:56:36.822Z,15.80
2023-02-06T14:59:19.925Z,17.23
2023-02-06T15:01:51.412Z,16.20
2023-02-06T15:04:34.800Z,20.55
2023-02-06T15:07:25.707Z,14.13
2023-02-06T15:12:53.172Z,21.05
2023-02-06T15:15:27.874Z,12.63
2023-02-06T15:18:24.271Z,16.85
2023-02-06T15:21:13.827Z,15.20
2023-02-06T15:24:02.786Z,16.92
2023-02-06T15:26:47.676Z,16.10
2023-02-06T15:29:27.212Z,16.60
2023-02-06T15:32:03.488Z,17.73
2023-02-06T15:34:33.675Z,17.50
2023-02-06T15:37:33.446Z,19.73
2023-02-06T15:40:08.775Z,18.13
2023-02-06T15:42:37.157Z,18.15
2023-02-06T15:45:04.908Z,19.50
2023-02-06T15:47:32.854Z,18.65
2023-02-06T15:50:00.706Z,13.73
2023-02-06T15:52:43.178Z,19.45
2023-02-06T15:55:35.187Z,15.55
2023-02-06T15:58:04.889Z,14.25
2023-02-06T16:00:37.783Z,12.95
2023-02-06T16:03:08.606Z,13.95
2023-02-06T16:05:44.096Z,14.27
2023-02-06T16:08:33.428Z,15.20
2023-02-06T16:11:05.537Z,17.40
2023-02-06T16:13:35.240Z,16.70
2023-02-06T16:16:08.651Z,18.33
2023-02-06T16:18:40.510Z,17.33
2023-02-06T16:21:23.535Z,20.77
2023-02-06T16:24:17.014Z,20.63
2023-02-06T16:26:52.424Z,16.88
2023-02-06T16:29:29.478Z,18.02
2023-02-06T16:32:03.173Z,19.23
2023-02-06T16:34:40.936Z,15.82
2023-02-06T16:37:20.633Z,17.70
2023-02-06T16:39:48.090Z,15.57
2023-02-06T16:42:19.675Z,18.23
2023-02-06T16:44:50.272Z,15.73
2023-02-06T16:47:19.820Z,20.08
2023-02-06T16:49:51.110Z,19.52
2023-02-06T16:52:40.401Z,20.17
2023-02-06T16:55:16.551Z,21.95
2023-02-06T16:57:45.194Z,25.88
2023-02-06T17:00:25.460Z,22.48
2023-02-06T17:02:53.755Z,28.73
2023-02-06T17:05:24.214Z,28.70
2023-02-06T17:07:52.052Z,25.45
2023-02-06T17:10:23.128Z,21.13
2023-02-06T17:12:50.737Z,19.80
2023-02-06T17:15:19.676Z,21.95
2023-02-06T17:17:47.273Z,22.70
2023-02-06T17:20:41.942Z,19.02
2023-02-06T17:23:12.348Z,21.25
2023-02-06T17:25:39.960Z,18.15
2023-02-06T17:28:10.010Z,22.05
2023-02-06T17:30:38.332Z,20.30
2023-02-06T17:33:06.467Z,27.05
2023-02-06T17:35:36.824Z,25.30
2023-02-06T17:38:09.282Z,29.05
2023-02-06T17:40:40.997Z,19.35
2023-02-06T17:43:59.478Z,27.25
2023-02-06T17:46:09.119Z,19.50
2023-02-06T17:48:55.473Z,22.02
2023-02-06T17:52:04.184Z,20.58
2023-02-06T17:54:44.934Z,27.50
2023-02-06T17:57:56.781Z,22.33
2023-02-06T18:00:46.318Z,21.67
2023-02-06T18:03:28.088Z,23.40
2023-02-06T18:06:28.186Z,19.17
2023-02-06T18:09:06.813Z,17.58
2023-02-06T18:11:35.954Z,20.50
2023-02-06T18:14:03.303Z,20.42
2023-02-06T18:16:31.712Z,17.92
2023-02-06T18:18:58.818Z,18.75
2023-02-06T18:21:29.045Z,17.45
2023-02-06T18:23:56.173Z,19.92
2023-02-06T18:26:24.381Z,21.38
2023-02-06T18:28:51.637Z,16.73
2023-02-06T18:31:33.417Z,16.45
2023-02-06T18:34:03.189Z,24.50
2023-02-06T18:36:30.477Z,16.02
2023-02-06T18:38:57.780Z,15.00
2023-02-06T18:41:43.191Z,23.15
2023-02-06T18:44:11.370Z,16.38
2023-02-06T18:46:38.867Z,19.67
2023-02-06T18:49:06.653Z,16.88
2023-02-06T18:51:34.018Z,31.73
2023-02-06T18:54:01.653Z,18.45
2023-02-06T18:56:29.105Z,21.63
2023-02-06T18:58:56.525Z,21.02
2023-02-06T19:01:25.670Z,16.00
2023-02-06T19:03:53.510Z,18.85
2023-02-06T19:06:24.021Z,12.38
2023-02-06T19:08:51.237Z,13.55
2023-02-06T19:11:18.582Z,14.20
2023-02-06T19:13:45.828Z,13.07
2023-02-06T19:16:15.274Z,10.23
2023-02-06T19:18:45.320Z,11.48
2023-02-06T19:21:18.695Z,11.63
2023-02-06T19:23:47.137Z,11.60
2023-02-06T19:26:16.077Z,11.20
2023-02-06T19:28:43.714Z,11.57
2023-02-06T19:31:12.584Z,14.23
2023-02-06T19:33:41.305Z,11.32
2023-02-06T19:36:16.095Z,11.70
2023-02-06T19:38:44.178Z,11.70
2023-02-06T19:41:16.457Z,11.45
2023-02-06T19:43:43.604Z,11.13
2023-02-06T19:46:13.617Z,11.43
2023-02-06T19:48:43.366Z,11.75
2023-02-06T19:51:13.145Z,12.55
2023-02-06T19:53:45.416Z,8.93
2023-02-06T19:56:14.027Z,12.23
2023-02-06T19:58:41.847Z,12.38
2023-02-06T20:01:14.847Z,9.05
2023-02-06T20:03:43.041Z,8.77
2023-02-06T20:06:12.875Z,17.13
2023-02-06T20:08:43.028Z,11.75
2023-02-06T20:11:20.641Z,22.88
2023-02-06T20:13:52.063Z,22.15
2023-02-06T20:16:29.198Z,15.57
2023-02-06T20:18:56.533Z,21.30
2023-02-06T20:21:33.722Z,14.40
2023-02-06T20:24:03.107Z,10.05
2023-02-06T20:26:36.774Z,10.48
2023-02-06T20:29:05.721Z,10.07
2023-02-06T20:31:34.484Z,6.97
2023-02-06T20:34:02.403Z,11.93
2023-02-06T20:36:30.014Z,10.40
2023-02-06T20:38:59.968Z,10.85
2023-02-06T20:41:31.073Z,10.60
2023-02-06T20:44:01.790Z,8.40
2023-02-06T20:46:30.853Z,11.55
2023-02-06T20:49:00.466Z,11.02
2023-02-06T20:51:28.653Z,11.38
2023-02-06T20:53:56.121Z,8.45
2023-02-06T20:56:25.973Z,9.15
2023-02-06T20:58:54.810Z,11.93
2023-02-06T21:01:25.859Z,9.55
2023-02-06T21:03:57.043Z,10.90
2023-02-06T21:06:24.439Z,8.57
2023-02-06T21:08:56.721Z,10.30
2023-02-06T21:11:24.301Z,17.97
2023-02-06T21:13:51.425Z,19.45
2023-02-06T21:16:18.514Z,21.73
2023-02-06T21:18:46.221Z,18.63
2023-02-06T21:21:18.595Z,14.27
2023-02-06T21:23:46.759Z,16.63
2023-02-06T21:26:15.015Z,24.70
2023-02-06T21:28:46.503Z,20.35
2023-02-06T21:31:17.443Z,16.10
2023-02-06T21:33:48.994Z,13.15
2023-02-06T21:36:16.665Z,12.32
2023-02-06T21:38:44.731Z,14.00
2023-02-06T21:41:14.922Z,13.07
2023-02-06T21:43:42.701Z,13.50
2023-02-06T21:46:11.094Z,11.27
2023-02-06T21:48:38.693Z,11.20
2023-02-06T21:51:09.736Z,9.70
2023-02-06T21:53:36.963Z,10.07
2023-02-06T21:56:09.775Z,10.77
2023-02-06T21:58:37.305Z,9.85
2023-02-06T22:01:08.939Z,8.85
2023-02-06T22:03:36.346Z,11.15
2023-02-06T22:06:08.836Z,8.70
2023-02-06T22:08:37.306Z,9.45
2023-02-06T22:11:31.629Z,10.95
2023-02-06T22:14:02.295Z,16.95
2023-02-06T22:16:29.786Z,22.85
2023-02-06T22:18:57.958Z,19.05
2023-02-06T22:21:27.644Z,18.88
2023-02-06T22:24:02.286Z,13.45
2023-02-06T22:26:34.012Z,13.60
2023-02-06T22:29:01.272Z,16.60
2023-02-06T22:31:32.664Z,17.60
2023-02-06T22:34:00.938Z,14.63
2023-02-06T22:36:30.608Z,18.00
2023-02-06T22:39:00.582Z,18.45
2023-02-06T22:41:28.155Z,10.50
2023-02-06T22:43:55.856Z,10.65
2023-02-06T22:46:27.279Z,9.55
2023-02-06T22:48:54.923Z,11.40
2023-02-06T22:51:22.916Z,9.35
2023-02-06T22:53:50.868Z,10.38
2023-02-06T22:56:35.095Z,13.25
2023-02-06T22:59:20.520Z,11.43
2023-02-06T23:01:53.344Z,12.25
2023-02-06T23:04:23.186Z,12.07
2023-02-06T23:06:51.121Z,12.43
2023-02-06T23:09:27.254Z,8.85
2023-02-06T23:11:55.053Z,11.68
2023-02-06T23:14:22.452Z,10.80
2023-02-06T23:16:49.842Z,10.95
2023-02-06T23:19:19.270Z,13.50
2023-02-06T23:21:48.025Z,11.68
2023-02-06T23:24:16.946Z,12.05
2023-02-06T23:26:46.313Z,13.10
2023-02-06T23:29:17.331Z,10.75
2023-02-06T23:31:49.877Z,11.15
2023-02-06T23:34:17.868Z,10.05
2023-02-06T23:36:46.147Z,11.35
2023-02-06T23:39:13.744Z,11.55
2023-02-06T23:41:43.868Z,8.68
2023-02-06T23:44:11.086Z,11.90
2023-02-06T23:46:40.087Z,8.35
2023-02-06T23:49:07.923Z,8.20
2023-02-06T23:51:36.729Z,11.30
2023-02-06T23:54:05.126Z,12.27
2023-02-06T23:56:33.250Z,11.98
2023-02-06T23:59:02.775Z,9.23
